sensor_id;sensor_type;location;lat;lon;timestamp;pressure;altitude;pressure_sealevel;temperature;humidity
72525;BME280;60547;48.502;8.996;2023-02-26T00:02:03;97375.16;;;0.08;71.05
72525;BME280;60547;48.502;8.996;2023-02-26T00:04:28;97367.25;;;-0.04;71.68
72525;BME280;60547;48.502;8.996;2023-02-26T00:06:54;97378.78;;;-0.28;71.97
72525;BME280;60547;48.502;8.996;2023-02-26T00:09:20;97366.25;;;-0.33;71.29
72525;BME280;60547;48.502;8.996;2023-02-26T00:11:46;97373.25;;;-0.39;71.90
72525;BME280;60547;48.502;8.996;2023-02-26T00:14:14;97387.44;;;-0.23;72.71
72525;BME280;60547;48.502;8.996;2023-02-26T00:16:40;97374.66;;;-0.08;73.05
72525;BME280;60547;48.502;8.996;2023-02-26T00:19:07;97378.09;;;-0.18;73.55
72525;BME280;60547;48.502;8.996;2023-02-26T00:21:34;97386.00;;;-0.06;73.01
72525;BME280;60547;48.502;8.996;2023-02-26T00:24:00;97380.06;;;-0.15;73.93
72525;BME280;60547;48.502;8.996;2023-02-26T00:26:27;97383.72;;;0.03;73.46
72525;BME280;60547;48.502;8.996;2023-02-26T00:28:54;97386.19;;;0.19;74.32
72525;BME280;60547;48.502;8.996;2023-02-26T00:31:20;97386.56;;;0.17;73.19
72525;BME280;60547;48.502;8.996;2023-02-26T00:33:50;97387.06;;;0.34;72.92
72525;BME280;60547;48.502;8.996;2023-02-26T00:41:21;97386.66;;;0.35;75.07
72525;BME280;60547;48.502;8.996;2023-02-26T00:43:47;97392.53;;;0.34;75.48
72525;BME280;60547;48.502;8.996;2023-02-26T00:46:37;97387.41;;;0.28;75.30
72525;BME280;60547;48.502;8.996;2023-02-26T00:49:24;97390.97;;;0.36;75.08
72525;BME280;60547;48.502;8.996;2023-02-26T00:51:56;97384.31;;;0.34;75.45
72525;BME280;60547;48.502;8.996;2023-02-26T00:54:25;97389.34;;;0.24;75.52
72525;BME280;60547;48.502;8.996;2023-02-26T00:56:53;97384.63;;;0.21;75.94
72525;BME280;60547;48.502;8.996;2023-02-26T00:59:20;97378.31;;;0.10;76.03
72525;BME280;60547;48.502;8.996;2023-02-26T01:01:47;97392.38;;;0.12;75.56
72525;BME280;60547;48.502;8.996;2023-02-26T01:04:14;97374.75;;;0.06;75.29
72525;BME280;60547;48.502;8.996;2023-02-26T01:06:54;97390.50;;;0.23;74.58
72525;BME280;60547;48.502;8.996;2023-02-26T01:11:56;97381.31;;;-0.06;73.71
72525;BME280;60547;48.502;8.996;2023-02-26T01:14:23;97383.72;;;0.03;74.64
72525;BME280;60547;48.502;8.996;2023-02-26T01:25:00;97385.22;;;-0.07;74.25
72525;BME280;60547;48.502;8.996;2023-02-26T01:27:27;97389.88;;;-0.11;75.09
72525;BME280;60547;48.502;8.996;2023-02-26T01:29:53;97389.13;;;-0.08;75.48
72525;BME280;60547;48.502;8.996;2023-02-26T01:38:23;97389.03;;;-0.18;76.72
72525;BME280;60547;48.502;8.996;2023-02-26T01:43:34;97395.19;;;-0.28;76.46
72525;BME280;60547;48.502;8.996;2023-02-26T01:48:53;97400.59;;;-0.36;77.43
72525;BME280;60547;48.502;8.996;2023-02-26T01:51:51;97399.00;;;-0.40;77.93
72525;BME280;60547;48.502;8.996;2023-02-26T01:54:23;97402.44;;;-0.47;77.84
72525;BME280;60547;48.502;8.996;2023-02-26T01:56:52;97386.44;;;-0.48;77.87
72525;BME280;60547;48.502;8.996;2023-02-26T01:59:20;97395.81;;;-0.46;78.27
72525;BME280;60547;48.502;8.996;2023-02-26T02:01:51;97391.81;;;-0.55;78.01
72525;BME280;60547;48.502;8.996;2023-02-26T02:04:17;97397.34;;;-0.48;78.06
72525;BME280;60547;48.502;8.996;2023-02-26T02:06:43;97395.91;;;-0.35;77.80
72525;BME280;60547;48.502;8.996;2023-02-26T02:09:11;97388.88;;;-0.36;77.94
72525;BME280;60547;48.502;8.996;2023-02-26T02:14:26;97389.22;;;-0.41;77.17
72525;BME280;60547;48.502;8.996;2023-02-26T02:17:12;97395.53;;;-0.34;78.03
72525;BME280;60547;48.502;8.996;2023-02-26T02:25:27;97399.03;;;-0.37;78.09
72525;BME280;60547;48.502;8.996;2023-02-26T02:33:41;97407.56;;;-0.42;78.74
72525;BME280;60547;48.502;8.996;2023-02-26T02:36:21;97398.56;;;-0.46;77.79
72525;BME280;60547;48.502;8.996;2023-02-26T02:38:52;97409.03;;;-0.51;76.98
72525;BME280;60547;48.502;8.996;2023-02-26T02:41:31;97419.22;;;-0.48;76.85
72525;BME280;60547;48.502;8.996;2023-02-26T02:44:05;97409.91;;;-0.44;76.93
72525;BME280;60547;48.502;8.996;2023-02-26T02:46:36;97418.09;;;-0.44;77.13
72525;BME280;60547;48.502;8.996;2023-02-26T02:49:13;97419.94;;;-0.55;77.68
72525;BME280;60547;48.502;8.996;2023-02-26T02:54:39;97412.06;;;-0.60;74.98
72525;BME280;60547;48.502;8.996;2023-02-26T02:57:26;97425.69;;;-0.63;73.67
72525;BME280;60547;48.502;8.996;2023-02-26T02:59:58;97418.72;;;-0.94;72.88
72525;BME280;60547;48.502;8.996;2023-02-26T03:02:38;97415.41;;;-1.11;73.29
72525;BME280;60547;48.502;8.996;2023-02-26T03:05:05;97429.31;;;-1.23;73.32
72525;BME280;60547;48.502;8.996;2023-02-26T03:07:34;97434.19;;;-1.06;73.17
72525;BME280;60547;48.502;8.996;2023-02-26T03:10:00;97431.22;;;-0.93;73.42
72525;BME280;60547;48.502;8.996;2023-02-26T03:12:30;97423.53;;;-0.84;72.79
72525;BME280;60547;48.502;8.996;2023-02-26T03:14:56;97430.84;;;-0.92;72.35
72525;BME280;60547;48.502;8.996;2023-02-26T03:17:40;97437.91;;;-1.21;72.49
72525;BME280;60547;48.502;8.996;2023-02-26T03:20:28;97436.66;;;-1.57;73.13
72525;BME280;60547;48.502;8.996;2023-02-26T03:26:00;97448.88;;;-1.17;74.37
72525;BME280;60547;48.502;8.996;2023-02-26T03:28:39;97446.59;;;-1.12;74.82
72525;BME280;60547;48.502;8.996;2023-02-26T03:31:07;97458.16;;;-1.22;72.89
72525;BME280;60547;48.502;8.996;2023-02-26T03:36:23;97449.75;;;-1.10;74.11
72525;BME280;60547;48.502;8.996;2023-02-26T03:38:58;97459.94;;;-1.07;73.92
72525;BME280;60547;48.502;8.996;2023-02-26T03:41:32;97458.59;;;-1.20;72.53
72525;BME280;60547;48.502;8.996;2023-02-26T03:44:03;97460.56;;;-1.17;72.65
72525;BME280;60547;48.502;8.996;2023-02-26T03:46:38;97466.97;;;-1.06;74.29
72525;BME280;60547;48.502;8.996;2023-02-26T03:49:09;97471.59;;;-1.10;73.68
72525;BME280;60547;48.502;8.996;2023-02-26T03:51:37;97471.34;;;-1.27;73.42
72525;BME280;60547;48.502;8.996;2023-02-26T03:54:12;97462.84;;;-1.22;74.34
72525;BME280;60547;48.502;8.996;2023-02-26T03:56:43;97462.09;;;-1.19;74.64
72525;BME280;60547;48.502;8.996;2023-02-26T03:59:10;97468.56;;;-1.31;75.37
72525;BME280;60547;48.502;8.996;2023-02-26T04:01:42;97470.47;;;-1.35;75.95
72525;BME280;60547;48.502;8.996;2023-02-26T04:04:33;97478.59;;;-1.39;76.85
72525;BME280;60547;48.502;8.996;2023-02-26T04:07:02;97469.94;;;-1.44;76.49
72525;BME280;60547;48.502;8.996;2023-02-26T04:09:28;97471.84;;;-1.48;76.58
72525;BME280;60547;48.502;8.996;2023-02-26T04:11:55;97487.53;;;-1.42;76.59
72525;BME280;60547;48.502;8.996;2023-02-26T04:14:21;97489.03;;;-1.44;76.22
72525;BME280;60547;48.502;8.996;2023-02-26T04:16:47;97488.94;;;-1.51;76.93
72525;BME280;60547;48.502;8.996;2023-02-26T04:19:12;97493.13;;;-1.57;77.35
72525;BME280;60547;48.502;8.996;2023-02-26T04:21:38;97487.31;;;-1.56;77.23
72525;BME280;60547;48.502;8.996;2023-02-26T04:24:04;97489.16;;;-1.64;77.56
72525;BME280;60547;48.502;8.996;2023-02-26T04:26:30;97492.56;;;-1.70;78.03
72525;BME280;60547;48.502;8.996;2023-02-26T04:28:55;97487.03;;;-1.74;78.32
72525;BME280;60547;48.502;8.996;2023-02-26T04:31:21;97479.16;;;-1.79;78.43
72525;BME280;60547;48.502;8.996;2023-02-26T04:33:46;97485.78;;;-1.80;78.57
72525;BME280;60547;48.502;8.996;2023-02-26T04:36:12;97486.81;;;-1.88;77.86
72525;BME280;60547;48.502;8.996;2023-02-26T04:38:38;97492.50;;;-1.74;77.41
72525;BME280;60547;48.502;8.996;2023-02-26T04:41:04;97501.78;;;-1.78;77.85
72525;BME280;60547;48.502;8.996;2023-02-26T04:43:29;97501.59;;;-1.89;78.64
72525;BME280;60547;48.502;8.996;2023-02-26T04:45:55;97487.44;;;-1.98;78.57
72525;BME280;60547;48.502;8.996;2023-02-26T04:48:20;97488.88;;;-2.04;77.99
72525;BME280;60547;48.502;8.996;2023-02-26T04:50:46;97493.31;;;-1.96;78.24
72525;BME280;60547;48.502;8.996;2023-02-26T04:53:12;97502.22;;;-1.99;78.39
72525;BME280;60547;48.502;8.996;2023-02-26T04:55:38;97503.78;;;-1.98;78.46
72525;BME280;60547;48.502;8.996;2023-02-26T04:58:05;97495.06;;;-2.07;78.65
72525;BME280;60547;48.502;8.996;2023-02-26T05:00:31;97497.00;;;-2.08;78.86
72525;BME280;60547;48.502;8.996;2023-02-26T05:02:56;97511.00;;;-2.09;79.04
72525;BME280;60547;48.502;8.996;2023-02-26T05:05:22;97512.50;;;-2.12;78.63
72525;BME280;60547;48.502;8.996;2023-02-26T05:07:48;97512.44;;;-2.15;78.59
72525;BME280;60547;48.502;8.996;2023-02-26T05:10:13;97518.63;;;-2.18;78.74
72525;BME280;60547;48.502;8.996;2023-02-26T05:12:39;97518.75;;;-2.11;78.91
72525;BME280;60547;48.502;8.996;2023-02-26T05:15:08;97528.50;;;-2.10;79.35
72525;BME280;60547;48.502;8.996;2023-02-26T05:17:34;97530.38;;;-2.14;78.99
72525;BME280;60547;48.502;8.996;2023-02-26T05:19:59;97520.63;;;-2.15;79.46
72525;BME280;60547;48.502;8.996;2023-02-26T05:22:25;97529.59;;;-2.15;79.73
72525;BME280;60547;48.502;8.996;2023-02-26T05:24:50;97523.22;;;-2.22;79.45
72525;BME280;60547;48.502;8.996;2023-02-26T05:27:16;97525.22;;;-2.19;79.30
72525;BME280;60547;48.502;8.996;2023-02-26T05:29:41;97530.78;;;-2.12;80.20
72525;BME280;60547;48.502;8.996;2023-02-26T05:32:09;97534.66;;;-2.13;79.89
72525;BME280;60547;48.502;8.996;2023-02-26T05:34:35;97531.88;;;-2.17;79.56
72525;BME280;60547;48.502;8.996;2023-02-26T05:37:00;97544.78;;;-2.14;79.39
72525;BME280;60547;48.502;8.996;2023-02-26T05:39:26;97541.75;;;-2.09;78.59
72525;BME280;60547;48.502;8.996;2023-02-26T05:41:51;97554.47;;;-1.93;79.23
72525;BME280;60547;48.502;8.996;2023-02-26T05:44:20;97547.41;;;-1.98;79.63
72525;BME280;60547;48.502;8.996;2023-02-26T05:46:46;97562.66;;;-1.93;79.97
72525;BME280;60547;48.502;8.996;2023-02-26T05:49:12;97562.25;;;-1.96;79.96
72525;BME280;60547;48.502;8.996;2023-02-26T05:51:37;97548.41;;;-2.06;79.92
72525;BME280;60547;48.502;8.996;2023-02-26T05:54:04;97563.94;;;-1.87;79.57
72525;BME280;60547;48.502;8.996;2023-02-26T05:56:29;97564.25;;;-1.92;79.88
72525;BME280;60547;48.502;8.996;2023-02-26T05:58:55;97560.28;;;-1.95;80.08
72525;BME280;60547;48.502;8.996;2023-02-26T06:01:21;97573.19;;;-1.92;80.17
72525;BME280;60547;48.502;8.996;2023-02-26T06:03:46;97577.00;;;-1.97;79.84
72525;BME280;60547;48.502;8.996;2023-02-26T06:06:12;97577.00;;;-1.97;80.14
72525;BME280;60547;48.502;8.996;2023-02-26T06:08:40;97576.16;;;-2.01;79.69
72525;BME280;60547;48.502;8.996;2023-02-26T06:11:08;97599.53;;;-2.00;79.31
72525;BME280;60547;48.502;8.996;2023-02-26T06:13:34;97577.13;;;-2.12;79.22
72525;BME280;60547;48.502;8.996;2023-02-26T06:16:00;97594.03;;;-2.03;79.15
72525;BME280;60547;48.502;8.996;2023-02-26T06:18:25;97603.28;;;-2.08;78.46
72525;BME280;60547;48.502;8.996;2023-02-26T06:20:51;97602.22;;;-2.03;78.46
72525;BME280;60547;48.502;8.996;2023-02-26T06:23:16;97614.38;;;-1.97;78.21
72525;BME280;60547;48.502;8.996;2023-02-26T06:25:42;97613.53;;;-2.01;78.24
72525;BME280;60547;48.502;8.996;2023-02-26T06:28:07;97622.13;;;-1.99;78.09
72525;BME280;60547;48.502;8.996;2023-02-26T06:30:34;97617.78;;;-2.04;79.23
72525;BME280;60547;48.502;8.996;2023-02-26T06:32:59;97619.84;;;-1.97;77.86
72525;BME280;60547;48.502;8.996;2023-02-26T06:35:25;97625.28;;;-1.97;77.85
72525;BME280;60547;48.502;8.996;2023-02-26T06:37:55;97619.47;;;-1.96;78.72
72525;BME280;60547;48.502;8.996;2023-02-26T06:40:20;97627.72;;;-1.92;78.19
72525;BME280;60547;48.502;8.996;2023-02-26T06:42:46;97636.34;;;-1.90;78.76
72525;BME280;60547;48.502;8.996;2023-02-26T06:45:11;97633.19;;;-1.92;79.28
72525;BME280;60547;48.502;8.996;2023-02-26T06:47:37;97634.69;;;-1.94;79.45
72525;BME280;60547;48.502;8.996;2023-02-26T06:50:02;97640.34;;;-1.84;78.79
72525;BME280;60547;48.502;8.996;2023-02-26T06:52:29;97645.50;;;-1.79;78.33
72525;BME280;60547;48.502;8.996;2023-02-26T06:54:55;97646.22;;;-1.82;78.49
72525;BME280;60547;48.502;8.996;2023-02-26T06:57:23;97645.97;;;-1.73;78.38
72525;BME280;60547;48.502;8.996;2023-02-26T06:59:48;97659.25;;;-1.72;78.78
72525;BME280;60547;48.502;8.996;2023-02-26T07:02:17;97655.25;;;-1.78;78.54
72525;BME280;60547;48.502;8.996;2023-02-26T07:04:43;97649.78;;;-1.78;78.81
72525;BME280;60547;48.502;8.996;2023-02-26T07:07:09;97661.19;;;-1.72;78.19
72525;BME280;60547;48.502;8.996;2023-02-26T07:09:35;97649.72;;;-1.81;76.05
72525;BME280;60547;48.502;8.996;2023-02-26T07:12:00;97652.03;;;-1.83;77.26
72525;BME280;60547;48.502;8.996;2023-02-26T07:14:26;97654.25;;;-1.89;77.01
72525;BME280;60547;48.502;8.996;2023-02-26T07:16:51;97661.50;;;-1.77;77.20
72525;BME280;60547;48.502;8.996;2023-02-26T07:19:17;97668.22;;;-1.71;77.88
72525;BME280;60547;48.502;8.996;2023-02-26T07:21:42;97668.72;;;-1.66;78.29
72525;BME280;60547;48.502;8.996;2023-02-26T07:24:08;97672.56;;;-1.47;77.19
72525;BME280;60547;48.502;8.996;2023-02-26T07:26:33;97671.47;;;-1.43;77.63
72525;BME280;60547;48.502;8.996;2023-02-26T07:28:59;97677.84;;;-1.35;77.18
72525;BME280;60547;48.502;8.996;2023-02-26T07:31:24;97665.53;;;-1.48;77.11
72525;BME280;60547;48.502;8.996;2023-02-26T07:33:50;97678.25;;;-1.33;76.77
72525;BME280;60547;48.502;8.996;2023-02-26T07:36:15;97682.56;;;-1.32;77.33
72525;BME280;60547;48.502;8.996;2023-02-26T07:38:41;97674.75;;;-1.34;77.19
72525;BME280;60547;48.502;8.996;2023-02-26T07:41:06;97680.25;;;-1.30;76.79
72525;BME280;60547;48.502;8.996;2023-02-26T07:43:32;97683.53;;;-1.21;76.65
72525;BME280;60547;48.502;8.996;2023-02-26T07:45:59;97682.06;;;-1.15;74.96
72525;BME280;60547;48.502;8.996;2023-02-26T07:48:24;97684.09;;;-1.35;75.46
72525;BME280;60547;48.502;8.996;2023-02-26T07:50:51;97683.16;;;-1.19;74.37
72525;BME280;60547;48.502;8.996;2023-02-26T07:53:18;97682.91;;;-1.11;74.85
72525;BME280;60547;48.502;8.996;2023-02-26T07:55:43;97689.84;;;-1.17;75.00
72525;BME280;60547;48.502;8.996;2023-02-26T07:58:09;97685.78;;;-1.04;73.90
72525;BME280;60547;48.502;8.996;2023-02-26T08:00:35;97691.22;;;-1.04;74.55
72525;BME280;60547;48.502;8.996;2023-02-26T08:03:00;97682.13;;;-1.11;74.83
72525;BME280;60547;48.502;8.996;2023-02-26T08:05:26;97682.56;;;-1.32;74.50
72525;BME280;60547;48.502;8.996;2023-02-26T08:07:51;97686.66;;;-1.65;75.98
72525;BME280;60547;48.502;8.996;2023-02-26T08:10:17;97685.59;;;-1.37;75.36
72525;BME280;60547;48.502;8.996;2023-02-26T08:12:43;97697.34;;;-1.33;76.07
72525;BME280;60547;48.502;8.996;2023-02-26T08:15:08;97698.25;;;-1.48;74.78
72525;BME280;60547;48.502;8.996;2023-02-26T08:17:37;97701.13;;;-1.41;75.97
72525;BME280;60547;48.502;8.996;2023-02-26T08:20:03;97687.22;;;-1.33;75.99
72525;BME280;60547;48.502;8.996;2023-02-26T08:22:30;97691.53;;;-1.32;75.25
72525;BME280;60547;48.502;8.996;2023-02-26T08:24:58;97684.75;;;-1.41;75.85
72525;BME280;60547;48.502;8.996;2023-02-26T08:27:24;97699.84;;;-1.47;77.10
72525;BME280;60547;48.502;8.996;2023-02-26T08:29:50;97684.03;;;-1.38;76.53
72525;BME280;60547;48.502;8.996;2023-02-26T08:32:17;97696.00;;;-1.85;75.69
72525;BME280;60547;48.502;8.996;2023-02-26T08:34:44;97688.09;;;-1.71;76.44
72525;BME280;60547;48.502;8.996;2023-02-26T08:37:11;97694.06;;;-1.65;76.77
72525;BME280;60547;48.502;8.996;2023-02-26T08:39:38;97684.94;;;-1.73;78.03
72525;BME280;60547;48.502;8.996;2023-02-26T08:42:07;97690.66;;;-1.58;78.72
72525;BME280;60547;48.502;8.996;2023-02-26T08:44:33;97697.09;;;-1.47;78.19
72525;BME280;60547;48.502;8.996;2023-02-26T08:46:59;97697.03;;;-1.51;77.98
72525;BME280;60547;48.502;8.996;2023-02-26T08:49:25;97699.47;;;-1.46;78.14
72525;BME280;60547;48.502;8.996;2023-02-26T08:51:50;97707.97;;;-1.51;78.38
72525;BME280;60547;48.502;8.996;2023-02-26T08:54:16;97708.44;;;-1.45;79.28
72525;BME280;60547;48.502;8.996;2023-02-26T08:56:41;97712.41;;;-1.62;77.84
72525;BME280;60547;48.502;8.996;2023-02-26T08:59:08;97715.50;;;-1.64;78.59
72525;BME280;60547;48.502;8.996;2023-02-26T09:01:36;97714.84;;;-1.57;77.35
72525;BME280;60547;48.502;8.996;2023-02-26T09:04:01;97725.91;;;-1.50;76.57
72525;BME280;60547;48.502;8.996;2023-02-26T09:06:27;97725.25;;;-1.43;75.80
72525;BME280;60547;48.502;8.996;2023-02-26T09:08:52;97717.34;;;-1.48;75.57
72525;BME280;60547;48.502;8.996;2023-02-26T09:11:18;97732.09;;;-1.30;75.01
72525;BME280;60547;48.502;8.996;2023-02-26T09:13:43;97725.78;;;-1.57;74.39
72525;BME280;60547;48.502;8.996;2023-02-26T09:16:09;97742.91;;;-1.56;74.79
72525;BME280;60547;48.502;8.996;2023-02-26T09:18:34;97735.38;;;-1.63;73.66
72525;BME280;60547;48.502;8.996;2023-02-26T09:21:00;97724.25;;;-1.54;74.48
72525;BME280;60547;48.502;8.996;2023-02-26T09:23:26;97736.91;;;-1.66;73.65
72525;BME280;60547;48.502;8.996;2023-02-26T09:25:53;97721.88;;;-1.56;73.78
72525;BME280;60547;48.502;8.996;2023-02-26T09:28:20;97732.94;;;-1.49;75.10
72525;BME280;60547;48.502;8.996;2023-02-26T09:30:46;97739.59;;;-1.46;73.88
72525;BME280;60547;48.502;8.996;2023-02-26T09:33:12;97744.13;;;-1.54;74.75
72525;BME280;60547;48.502;8.996;2023-02-26T09:35:37;97754.53;;;-1.40;74.19
72525;BME280;60547;48.502;8.996;2023-02-26T09:38:03;97748.09;;;-1.51;74.51
72525;BME280;60547;48.502;8.996;2023-02-26T09:40:59;97745.34;;;-1.51;72.82
72525;BME280;60547;48.502;8.996;2023-02-26T09:51:47;97747.44;;;-1.64;76.29
72525;BME280;60547;48.502;8.996;2023-02-26T09:54:21;97760.72;;;-1.63;75.85
72525;BME280;60547;48.502;8.996;2023-02-26T09:56:49;97757.06;;;-1.51;74.84
72525;BME280;60547;48.502;8.996;2023-02-26T09:59:15;97768.75;;;-1.50;75.97
72525;BME280;60547;48.502;8.996;2023-02-26T10:04:23;97776.38;;;-1.59;76.10
72525;BME280;60547;48.502;8.996;2023-02-26T10:09:59;97787.56;;;-1.65;76.69
72525;BME280;60547;48.502;8.996;2023-02-26T10:12:29;97792.81;;;-1.56;76.60
72525;BME280;60547;48.502;8.996;2023-02-26T10:18:07;97795.75;;;-1.45;75.76
72525;BME280;60547;48.502;8.996;2023-02-26T10:23:19;97780.78;;;-0.67;73.38
72525;BME280;60547;48.502;8.996;2023-02-26T10:25:51;97775.53;;;0.00;72.66
72525;BME280;60547;48.502;8.996;2023-02-26T10:28:34;97765.22;;;0.50;72.00
72525;BME280;60547;48.502;8.996;2023-02-26T10:31:08;97761.06;;;0.63;67.92
72525;BME280;60547;48.502;8.996;2023-02-26T10:33:45;97761.16;;;0.70;67.21
72525;BME280;60547;48.502;8.996;2023-02-26T10:36:42;97752.66;;;0.82;66.51
72525;BME280;60547;48.502;8.996;2023-02-26T10:42:00;97758.53;;;1.25;65.95
72525;BME280;60547;48.502;8.996;2023-02-26T10:44:37;97761.66;;;1.23;66.78
72525;BME280;60547;48.502;8.996;2023-02-26T10:50:08;97777.16;;;0.68;69.69
72525;BME280;60547;48.502;8.996;2023-02-26T10:52:35;97766.63;;;0.37;69.96
72525;BME280;60547;48.502;8.996;2023-02-26T10:58:23;97777.25;;;0.42;71.15
72525;BME280;60547;48.502;8.996;2023-02-26T11:00:53;97780.13;;;0.22;70.69
72525;BME280;60547;48.502;8.996;2023-02-26T11:03:29;97784.56;;;0.04;71.05
72525;BME280;60547;48.502;8.996;2023-02-26T11:05:55;97778.84;;;-0.14;70.56
72525;BME280;60547;48.502;8.996;2023-02-26T11:08:31;97782.59;;;-0.25;70.86
72525;BME280;60547;48.502;8.996;2023-02-26T11:10:59;97786.78;;;-0.31;72.25
72525;BME280;60547;48.502;8.996;2023-02-26T11:13:27;97779.31;;;-0.08;71.94
72525;BME280;60547;48.502;8.996;2023-02-26T11:15:56;97787.13;;;-0.37;72.01
72525;BME280;60547;48.502;8.996;2023-02-26T11:18:28;97771.56;;;-0.32;72.76
72525;BME280;60547;48.502;8.996;2023-02-26T11:20:56;97781.16;;;-0.16;71.69
72525;BME280;60547;48.502;8.996;2023-02-26T11:23:26;97780.69;;;0.05;71.73
72525;BME280;60547;48.502;8.996;2023-02-26T11:26:04;97772.19;;;-0.16;71.91
72525;BME280;60547;48.502;8.996;2023-02-26T11:28:37;97775.34;;;-0.41;72.23
72525;BME280;60547;48.502;8.996;2023-02-26T11:31:10;97788.25;;;-0.38;72.65
72525;BME280;60547;48.502;8.996;2023-02-26T11:33:43;97771.13;;;-0.35;72.58
72525;BME280;60547;48.502;8.996;2023-02-26T11:36:13;97778.59;;;-0.05;73.48
72525;BME280;60547;48.502;8.996;2023-02-26T11:38:39;97781.91;;;-0.19;71.33
72525;BME280;60547;48.502;8.996;2023-02-26T11:41:05;97780.13;;;0.22;71.67
72525;BME280;60547;48.502;8.996;2023-02-26T11:44:01;97781.41;;;0.02;70.18
72525;BME280;60547;48.502;8.996;2023-02-26T11:46:27;97774.88;;;0.10;69.58
72525;BME280;60547;48.502;8.996;2023-02-26T11:48:54;97786.88;;;0.02;69.49
72525;BME280;60547;48.502;8.996;2023-02-26T11:51:24;97777.25;;;0.12;70.56
72525;BME280;60547;48.502;8.996;2023-02-26T11:56:34;97773.03;;;0.18;70.35
72525;BME280;60547;48.502;8.996;2023-02-26T11:59:07;97775.91;;;0.28;69.73
72525;BME280;60547;48.502;8.996;2023-02-26T12:01:34;97768.59;;;0.06;68.74
72525;BME280;60547;48.502;8.996;2023-02-26T12:04:01;97777.91;;;0.31;68.70
72525;BME280;60547;48.502;8.996;2023-02-26T12:06:27;97780.03;;;0.15;69.42
72525;BME280;60547;48.502;8.996;2023-02-26T12:08:53;97782.44;;;0.20;69.90
72525;BME280;60547;48.502;8.996;2023-02-26T12:11:41;97801.88;;;0.12;71.19
72525;BME280;60547;48.502;8.996;2023-02-26T12:14:13;97794.19;;;0.21;69.68
72525;BME280;60547;48.502;8.996;2023-02-26T12:19:35;97799.59;;;0.17;69.25
72525;BME280;60547;48.502;8.996;2023-02-26T12:24:58;97789.63;;;0.02;69.28
72525;BME280;60547;48.502;8.996;2023-02-26T12:33:12;97782.59;;;0.31;70.77
72525;BME280;60547;48.502;8.996;2023-02-26T12:38:38;97779.19;;;0.11;67.76
72525;BME280;60547;48.502;8.996;2023-02-26T12:55:45;97777.19;;;0.38;69.50
72525;BME280;60547;48.502;8.996;2023-02-26T12:58:32;97781.22;;;0.48;70.70
72525;BME280;60547;48.502;8.996;2023-02-26T13:03:42;97780.22;;;0.29;66.90
72525;BME280;60547;48.502;8.996;2023-02-26T13:06:36;97782.44;;;0.50;67.93
72525;BME280;60547;48.502;8.996;2023-02-26T13:09:17;97779.91;;;0.68;68.10
72525;BME280;60547;48.502;8.996;2023-02-26T13:14:57;97795.25;;;0.43;66.20
72525;BME280;60547;48.502;8.996;2023-02-26T13:20:12;97776.50;;;0.45;66.09
72525;BME280;60547;48.502;8.996;2023-02-26T13:22:47;97792.16;;;0.48;65.71
72525;BME280;60547;48.502;8.996;2023-02-26T13:25:33;97798.44;;;0.48;65.74
72525;BME280;60547;48.502;8.996;2023-02-26T13:28:03;97795.25;;;0.43;65.93
72525;BME280;60547;48.502;8.996;2023-02-26T13:30:35;97795.19;;;0.39;66.76
72525;BME280;60547;48.502;8.996;2023-02-26T13:33:04;97810.50;;;0.44;67.55
72525;BME280;60547;48.502;8.996;2023-02-26T13:35:41;97809.56;;;0.32;67.07
72525;BME280;60547;48.502;8.996;2023-02-26T13:41:04;97818.66;;;-0.16;72.40
72525;BME280;60547;48.502;8.996;2023-02-26T13:46:38;97809.16;;;0.30;72.96
72525;BME280;60547;48.502;8.996;2023-02-26T13:49:29;97805.31;;;0.35;70.43
72525;BME280;60547;48.502;8.996;2023-02-26T13:51:56;97808.09;;;0.72;70.14
72525;BME280;60547;48.502;8.996;2023-02-26T13:54:48;97799.09;;;1.09;69.18
72525;BME280;60547;48.502;8.996;2023-02-26T13:57:52;97797.25;;;1.20;67.93
72525;BME280;60547;48.502;8.996;2023-02-26T14:00:30;97792.09;;;1.59;65.87
72525;BME280;60547;48.502;8.996;2023-02-26T14:03:10;97801.19;;;1.67;66.91
72525;BME280;60547;48.502;8.996;2023-02-26T14:10:52;97791.00;;;0.82;67.19
72525;BME280;60547;48.502;8.996;2023-02-26T14:13:32;97798.06;;;0.83;68.84
72525;BME280;60547;48.502;8.996;2023-02-26T14:16:02;97806.47;;;0.68;68.75
72525;BME280;60547;48.502;8.996;2023-02-26T14:21:34;97809.56;;;0.62;68.28
72525;BME280;60547;48.502;8.996;2023-02-26T14:24:21;97814.66;;;0.64;68.74
72525;BME280;60547;48.502;8.996;2023-02-26T14:26:50;97812.75;;;0.68;67.34
72525;BME280;60547;48.502;8.996;2023-02-26T14:29:35;97821.38;;;0.70;68.49
72525;BME280;60547;48.502;8.996;2023-02-26T14:34:46;97810.66;;;0.91;66.22
72525;BME280;60547;48.502;8.996;2023-02-26T14:37:14;97808.25;;;0.86;64.85
72525;BME280;60547;48.502;8.996;2023-02-26T14:39:54;97822.25;;;0.78;65.23
72525;BME280;60547;48.502;8.996;2023-02-26T14:42:41;97812.34;;;0.66;63.52
72525;BME280;60547;48.502;8.996;2023-02-26T14:47:43;97806.16;;;0.73;64.08
72525;BME280;60547;48.502;8.996;2023-02-26T14:50:18;97814.63;;;0.98;63.80
72525;BME280;60547;48.502;8.996;2023-02-26T14:52:49;97815.31;;;0.87;63.54
72525;BME280;60547;48.502;8.996;2023-02-26T14:55:29;97820.81;;;0.91;62.17
72525;BME280;60547;48.502;8.996;2023-02-26T15:00:51;97831.88;;;0.98;62.66
72525;BME280;60547;48.502;8.996;2023-02-26T15:12:27;97840.28;;;0.82;62.85
72525;BME280;60547;48.502;8.996;2023-02-26T15:15:11;97837.72;;;0.96;62.08
72525;BME280;60547;48.502;8.996;2023-02-26T15:25:42;97836.13;;;0.62;61.23
72525;BME280;60547;48.502;8.996;2023-02-26T15:28:38;97848.81;;;1.11;60.48
72525;BME280;60547;48.502;8.996;2023-02-26T15:31:06;97846.84;;;1.48;60.61
72525;BME280;60547;48.502;8.996;2023-02-26T15:33:33;97837.00;;;1.44;59.15
72525;BME280;60547;48.502;8.996;2023-02-26T15:36:00;97844.88;;;1.45;58.15
72525;BME280;60547;48.502;8.996;2023-02-26T15:38:26;97843.75;;;1.13;58.44
72525;BME280;60547;48.502;8.996;2023-02-26T15:40:54;97851.56;;;1.11;59.14
72525;BME280;60547;48.502;8.996;2023-02-26T15:43:23;97855.88;;;1.12;58.27
72525;BME280;60547;48.502;8.996;2023-02-26T15:45:53;97861.16;;;0.94;57.67
72525;BME280;60547;48.502;8.996;2023-02-26T15:48:25;97861.13;;;0.90;58.71
72525;BME280;60547;48.502;8.996;2023-02-26T15:50:55;97837.06;;;0.73;58.07
72525;BME280;60547;48.502;8.996;2023-02-26T15:53:31;97870.59;;;0.96;58.01
72525;BME280;60547;48.502;8.996;2023-02-26T15:56:00;97873.75;;;0.99;59.50